createdAt,value
2017-02-27T00:00:05.017Z,0
2017-02-27T00:01:05.012Z,0
2017-02-27T00:02:04.994Z,0
2017-02-27T00:03:05.399Z,0
2017-02-27T00:04:05.445Z,0
2017-02-27T00:05:04.123Z,0
2017-02-27T00:06:05.290Z,0
2017-02-27T00:07:04.876Z,0
2017-02-27T00:08:04.456Z,0
2017-02-27T00:09:05.246Z,0
2017-02-27T00:10:05.231Z,0
2017-02-27T00:11:04.786Z,0
2017-02-27T00:12:04.378Z,0
2017-02-27T00:13:04.745Z,0
2017-02-27T00:14:04.721Z,0
2017-02-27T00:15:04.691Z,0
2017-02-27T00:16:04.719Z,0
2017-02-27T00:17:05.043Z,0
2017-02-27T00:18:04.638Z,0
2017-02-27T00:19:05.035Z,0
2017-02-27T00:20:05.049Z,0
2017-02-27T00:21:04.203Z,0
2017-02-27T00:22:04.169Z,0
2017-02-27T00:23:04.938Z,0
2017-02-27T00:24:04.519Z,0
2017-02-27T00:25:04.101Z,0
2017-02-27T00:26:04.927Z,0
2017-02-27T00:27:04.845Z,0
2017-02-27T00:28:04.056Z,0
2017-02-27T00:29:04.875Z,0
2017-02-27T00:30:03.995Z,0
2017-02-27T00:31:04.420Z,0
2017-02-27T00:32:03.964Z,0
2017-02-27T00:33:04.336Z,0
2017-02-27T00:34:04.319Z,0
2017-02-27T00:35:04.297Z,0
2017-02-27T00:36:04.272Z,0
2017-02-27T00:37:03.871Z,0
2017-02-27T00:38:05.007Z,0
2017-02-27T00:39:03.457Z,0
2017-02-27T00:40:03.407Z,0
2017-02-27T00:41:04.183Z,0
2017-02-27T00:42:04.188Z,0
2017-02-27T00:43:04.130Z,0
2017-02-27T00:44:04.139Z,0
2017-02-27T00:45:04.466Z,0
2017-02-27T00:46:04.069Z,0
2017-02-27T00:47:03.333Z,0
2017-02-27T00:48:03.244Z,0
2017-02-27T00:49:04.015Z,0
2017-02-27T00:50:04.404Z,0
2017-02-27T00:51:04.422Z,0
2017-02-27T00:52:03.551Z,0
2017-02-27T00:53:03.925Z,0
2017-02-27T00:54:03.533Z,0
2017-02-27T00:55:04.301Z,0
2017-02-27T00:56:04.242Z,0
2017-02-27T00:57:03.910Z,0
2017-02-27T00:58:04.230Z,0
2017-02-27T00:59:03.457Z,0
2017-02-27T01:00:04.178Z,0
2017-02-27T01:01:03.839Z,0
2017-02-27T01:02:04.152Z,0
2017-02-27T01:03:03.847Z,0
2017-02-27T01:04:04.099Z,0
2017-02-27T01:05:04.067Z,0
2017-02-27T01:06:04.055Z,0
2017-02-27T01:07:04.149Z,0
2017-02-27T01:08:02.853Z,0
2017-02-27T01:09:04.136Z,0
2017-02-27T01:10:04.021Z,0
2017-02-27T01:11:03.562Z,0
2017-02-27T01:12:03.552Z,0
2017-02-27T01:13:03.550Z,0
2017-02-27T01:14:03.911Z,0
2017-02-27T01:15:03.881Z,0
2017-02-27T01:16:02.710Z,0
2017-02-27T01:17:03.849Z,0
2017-02-27T01:18:03.475Z,0
2017-02-27T01:19:03.412Z,0
2017-02-27T01:20:03.053Z,0
2017-02-27T01:21:03.527Z,0
2017-02-27T01:22:03.746Z,0
2017-02-27T01:23:03.036Z,0
2017-02-27T01:24:03.298Z,0
2017-02-27T01:25:02.954Z,0
2017-02-27T01:26:03.704Z,0
2017-02-27T01:27:03.224Z,0
2017-02-27T01:28:03.256Z,0
2017-02-27T01:29:03.595Z,0
2017-02-27T01:30:02.406Z,0
2017-02-27T01:31:03.161Z,0
2017-02-27T01:32:03.162Z,0
2017-02-27T01:33:02.754Z,0
2017-02-27T01:34:03.492Z,0
2017-02-27T01:38:18.147Z,0
2017-02-27T01:52:48.861Z,0
2017-02-27T01:53:44.189Z,0
2017-02-27T01:54:43.790Z,0
2017-02-27T01:55:43.788Z,0
2017-02-27T01:56:44.627Z,0
2017-02-27T01:57:44.127Z,0
2017-02-27T01:58:44.123Z,0
2017-02-27T01:59:43.696Z,0
2017-02-27T02:00:43.676Z,0
2017-02-27T02:01:44.455Z,0
2017-02-27T02:02:43.638Z,0
2017-02-27T02:03:44.434Z,0
2017-02-27T02:04:44.395Z,0
2017-02-27T02:05:43.979Z,0
2017-02-27T02:06:43.943Z,0
2017-02-27T02:07:43.919Z,0
2017-02-27T02:08:43.938Z,0
2017-02-27T02:09:44.338Z,0
2017-02-27T02:10:43.870Z,0
2017-02-27T02:11:43.851Z,0
2017-02-27T02:12:43.552Z,0
2017-02-27T02:13:43.792Z,0
2017-02-27T02:14:43.789Z,0
2017-02-27T02:15:43.775Z,0
2017-02-27T02:16:44.139Z,0
2017-02-27T02:17:43.325Z,0
2017-02-27T02:18:44.107Z,0
2017-02-27T02:19:43.297Z,0
2017-02-27T02:20:43.675Z,0
2017-02-27T02:21:43.647Z,0
2017-02-27T02:22:43.236Z,0
2017-02-27T02:23:43.595Z,0
2017-02-27T02:24:43.714Z,0
2017-02-27T02:25:43.563Z,0
2017-02-27T02:26:43.945Z,0
2017-02-27T02:27:43.143Z,0
2017-02-27T02:28:43.133Z,0
2017-02-27T02:29:43.489Z,0
2017-02-27T02:30:43.081Z,0
2017-02-27T02:31:43.486Z,0
2017-02-27T02:32:43.439Z,0
2017-02-27T02:33:43.870Z,0
2017-02-27T02:34:43.768Z,0
2017-02-27T02:35:43.808Z,0
2017-02-27T02:36:43.358Z,0
2017-02-27T02:37:43.777Z,0
2017-02-27T02:38:42.532Z,0
2017-02-27T02:39:42.977Z,0
2017-02-27T02:40:43.289Z,0
2017-02-27T02:41:42.967Z,0
2017-02-27T02:42:43.614Z,0
2017-02-27T02:43:43.667Z,0
2017-02-27T02:44:43.576Z,0
2017-02-27T02:45:43.163Z,0
2017-02-27T02:46:43.146Z,0
2017-02-27T02:47:43.553Z,0
2017-02-27T02:48:43.092Z,0
2017-02-27T02:49:43.571Z,0
2017-02-27T02:50:42.331Z,0
2017-02-27T02:51:43.032Z,0
2017-02-27T02:52:43.409Z,0
2017-02-27T02:53:43.420Z,0
2017-02-27T02:54:43.359Z,0
2017-02-27T02:55:43.358Z,0
2017-02-27T02:56:42.948Z,0
2017-02-27T02:57:42.945Z,0
2017-02-27T02:58:43.325Z,0
2017-02-27T02:59:43.281Z,0
2017-02-27T03:00:42.865Z,0
2017-02-27T03:01:43.235Z,0
2017-02-27T03:02:42.827Z,0
2017-02-27T03:03:42.795Z,0
2017-02-27T03:04:42.788Z,0
2017-02-27T03:05:42.820Z,0
2017-02-27T03:06:43.182Z,0
2017-02-27T03:07:43.246Z,0
2017-02-27T03:08:42.309Z,0
2017-02-27T03:09:42.682Z,0
2017-02-27T03:10:43.080Z,0
2017-02-27T03:11:43.102Z,0
2017-02-27T03:12:42.637Z,0
2017-02-27T03:13:42.991Z,0
2017-02-27T03:14:42.197Z,0
2017-02-27T03:15:42.577Z,0
2017-02-27T03:16:42.147Z,0
2017-02-27T03:17:42.143Z,0
2017-02-27T03:18:42.496Z,0
2017-02-27T03:19:42.487Z,0
2017-02-27T03:20:42.461Z,0
2017-02-27T03:21:42.454Z,0
2017-02-27T03:22:42.038Z,0
2017-02-27T03:23:42.784Z,0
2017-02-27T03:24:42.882Z,0
2017-02-27T03:25:42.732Z,0
2017-02-27T03:26:42.353Z,0
2017-02-27T03:27:41.910Z,0
2017-02-27T03:28:42.743Z,0
2017-02-27T03:29:42.659Z,0
2017-02-27T03:30:42.749Z,0
2017-02-27T03:31:42.227Z,0
2017-02-27T03:32:42.209Z,0
2017-02-27T03:33:41.817Z,0
2017-02-27T03:34:42.230Z,0
2017-02-27T03:35:42.549Z,0
2017-02-27T03:36:42.155Z,0
2017-02-27T03:37:42.124Z,0
2017-02-27T03:38:41.374Z,0
2017-02-27T03:39:41.705Z,0
2017-02-27T03:40:42.085Z,0
2017-02-27T03:41:42.046Z,0
2017-02-27T03:42:41.638Z,0
2017-02-27T03:43:42.012Z,0
2017-02-27T03:44:41.986Z,0
2017-02-27T03:45:41.561Z,0
2017-02-27T03:46:41.931Z,0
2017-02-27T03:47:41.914Z,0
2017-02-27T03:48:41.906Z,0
2017-02-27T03:49:41.879Z,0
2017-02-27T03:50:41.481Z,0
2017-02-27T03:51:41.839Z,0
2017-02-27T03:52:41.818Z,0
2017-02-27T03:53:41.789Z,0
2017-02-27T03:54:41.769Z,0
2017-02-27T03:55:41.360Z,0
2017-02-27T03:56:41.405Z,0
2017-02-27T03:57:41.715Z,0
2017-02-27T03:58:42.086Z,0
2017-02-27T03:59:41.314Z,0
2017-02-27T04:00:41.284Z,0
2017-02-27T04:01:42.138Z,0
2017-02-27T04:02:41.642Z,0
2017-02-27T04:03:41.597Z,0
2017-02-27T04:04:41.962Z,0
2017-02-27T04:05:41.551Z,0
2017-02-27T04:06:41.918Z,0
2017-02-27T04:07:41.891Z,0
2017-02-27T04:08:41.210Z,0
2017-02-27T04:09:41.489Z,0
2017-02-27T04:10:41.458Z,0
2017-02-27T04:11:41.048Z,0
2017-02-27T04:12:41.808Z,0
2017-02-27T04:13:41.490Z,0
2017-02-27T04:14:41.755Z,0
2017-02-27T04:15:41.461Z,0
2017-02-27T04:16:41.326Z,0
2017-02-27T04:17:40.937Z,0
2017-02-27T04:18:41.282Z,0
2017-02-27T04:19:41.654Z,0
2017-02-27T04:20:41.265Z,0
2017-02-27T04:21:41.637Z,0
2017-02-27T04:22:41.336Z,0
2017-02-27T04:23:41.202Z,0
2017-02-27T04:24:41.166Z,0
2017-02-27T04:25:41.143Z,0
2017-02-27T04:26:40.769Z,0
2017-02-27T04:27:41.549Z,0
2017-02-27T04:28:41.089Z,0
2017-02-27T04:29:40.719Z,0
2017-02-27T04:30:41.451Z,0
2017-02-27T04:31:41.028Z,0
2017-02-27T04:32:41.404Z,0
2017-02-27T04:33:40.646Z,0
2017-02-27T04:34:41.376Z,0
2017-02-27T04:35:41.344Z,0
2017-02-27T04:36:41.012Z,0
2017-02-27T04:37:40.923Z,0
2017-02-27T04:38:40.533Z,0
2017-02-27T04:39:40.483Z,0
2017-02-27T04:40:40.460Z,0
2017-02-27T04:41:40.456Z,0
2017-02-27T04:42:40.922Z,0
2017-02-27T04:43:40.811Z,0
2017-02-27T04:44:40.780Z,0
2017-02-27T04:45:41.139Z,0
2017-02-27T04:46:40.728Z,0
2017-02-27T04:47:40.704Z,0
2017-02-27T04:48:39.910Z,0
2017-02-27T04:49:40.672Z,0
2017-02-27T04:50:40.659Z,0
2017-02-27T04:51:41.025Z,0
2017-02-27T04:52:40.610Z,0
2017-02-27T04:53:40.661Z,0
2017-02-27T04:54:40.974Z,0
2017-02-27T04:55:40.597Z,0
2017-02-27T04:56:40.924Z,0
2017-02-27T04:57:40.546Z,0
2017-02-27T04:58:40.097Z,0
2017-02-27T04:59:40.462Z,0
2017-02-27T05:00:40.491Z,0
2017-02-27T05:01:40.417Z,0
2017-02-27T05:02:40.481Z,0
2017-02-27T05:03:40.387Z,0
2017-02-27T05:04:40.368Z,0
2017-02-27T05:05:39.586Z,0
2017-02-27T05:06:39.949Z,0
2017-02-27T05:07:40.798Z,0
2017-02-27T05:08:40.356Z,0
2017-02-27T05:09:40.246Z,0
2017-02-27T05:10:39.476Z,0
2017-02-27T05:11:39.844Z,0
2017-02-27T05:12:40.168Z,0
2017-02-27T05:13:40.645Z,0
2017-02-27T05:14:39.783Z,0
2017-02-27T05:15:40.533Z,0
2017-02-27T05:16:40.242Z,0
2017-02-27T05:17:40.092Z,0
2017-02-27T05:18:40.114Z,0
2017-02-27T05:19:40.061Z,0
2017-02-27T05:20:40.570Z,0
2017-02-27T05:21:40.059Z,0
2017-02-27T05:22:40.386Z,0
2017-02-27T05:23:39.974Z,0
2017-02-27T05:24:39.958Z,0
2017-02-27T05:25:40.345Z,0
2017-02-27T05:26:39.536Z,0
2017-02-27T05:27:39.905Z,0
2017-02-27T05:28:39.495Z,0
2017-02-27T05:29:39.464Z,0
2017-02-27T05:30:39.847Z,0
2017-02-27T05:31:39.835Z,0
2017-02-27T05:32:40.185Z,0
2017-02-27T05:33:39.793Z,0
2017-02-27T05:34:39.383Z,0
2017-02-27T05:35:39.346Z,0
2017-02-27T05:36:39.341Z,0
2017-02-27T05:37:40.110Z,0
2017-02-27T05:38:40.080Z,0
2017-02-27T05:39:40.039Z,0
2017-02-27T05:40:39.649Z,0
2017-02-27T05:41:39.228Z,0
2017-02-27T05:42:39.520Z,0
2017-02-27T05:43:39.987Z,0
2017-02-27T05:44:39.564Z,0
2017-02-27T05:45:39.554Z,0
2017-02-27T05:46:39.212Z,0
2017-02-27T05:47:39.519Z,0
2017-02-27T05:48:39.211Z,0
2017-02-27T05:49:39.849Z,0
2017-02-27T05:50:39.554Z,0
2017-02-27T05:51:39.813Z,0
2017-02-27T05:52:39.804Z,0
2017-02-27T05:53:39.373Z,0
2017-02-27T05:54:39.361Z,0
2017-02-27T05:55:38.571Z,0
2017-02-27T05:56:39.710Z,0
2017-02-27T05:57:38.971Z,0
2017-02-27T05:58:39.300Z,0
2017-02-27T05:59:39.659Z,4
2017-02-27T06:00:39.240Z,4
2017-02-27T06:01:38.829Z,0
2017-02-27T06:02:39.198Z,4
2017-02-27T06:03:39.168Z,4
2017-02-27T06:04:39.547Z,0
2017-02-27T06:05:39.137Z,4
2017-02-27T06:06:39.122Z,4
2017-02-27T06:07:39.496Z,4
2017-02-27T06:08:39.213Z,4
2017-02-27T06:09:39.054Z,4
2017-02-27T06:10:39.058Z,8
2017-02-27T06:11:39.425Z,8
2017-02-27T06:12:39.005Z,12
2017-02-27T06:13:39.403Z,12
2017-02-27T06:14:38.971Z,12
2017-02-27T06:15:39.332Z,16
2017-02-27T06:16:39.311Z,16
2017-02-27T06:17:38.961Z,16
2017-02-27T06:18:39.281Z,16
2017-02-27T06:19:39.239Z,20
2017-02-27T06:20:39.249Z,20
2017-02-27T06:21:38.056Z,24
2017-02-27T06:22:38.848Z,28
2017-02-27T06:23:38.779Z,24
2017-02-27T06:24:39.157Z,28
2017-02-27T06:25:38.392Z,32
2017-02-27T06:26:38.336Z,36
2017-02-27T06:27:38.346Z,40
2017-02-27T06:28:39.074Z,44
2017-02-27T06:29:38.331Z,48
2017-02-27T06:30:38.716Z,48
2017-02-27T06:31:37.842Z,52
2017-02-27T06:32:38.593Z,48
2017-02-27T06:33:38.254Z,48
2017-02-27T06:34:38.163Z,52
2017-02-27T06:35:38.942Z,56
2017-02-27T06:36:38.588Z,68
2017-02-27T06:37:38.876Z,72
2017-02-27T06:38:38.861Z,76
2017-02-27T06:39:38.551Z,88
2017-02-27T06:40:38.821Z,96
2017-02-27T06:41:38.428Z,108
2017-02-27T06:42:38.788Z,120
2017-02-27T06:43:38.767Z,128
2017-02-27T06:44:38.728Z,132
2017-02-27T06:45:38.732Z,136
2017-02-27T06:46:38.707Z,140
2017-02-27T06:47:38.694Z,144
2017-02-27T06:48:38.354Z,148
2017-02-27T06:49:38.286Z,156
2017-02-27T06:50:38.625Z,176
2017-02-27T06:51:38.582Z,192
2017-02-27T06:52:38.593Z,192
2017-02-27T06:53:38.573Z,200
2017-02-27T06:54:37.782Z,208
2017-02-27T06:55:38.522Z,212
2017-02-27T06:56:38.121Z,204
2017-02-27T06:57:38.496Z,232
2017-02-27T06:58:38.460Z,276
2017-02-27T06:59:38.432Z,300
2017-02-27T07:00:38.428Z,280
2017-02-27T07:01:38.011Z,292
2017-02-27T07:02:37.616Z,304
2017-02-27T07:03:38.368Z,288
2017-02-27T07:04:38.367Z,300
2017-02-27T07:05:38.316Z,348
2017-02-27T07:06:38.305Z,440
2017-02-27T07:07:37.893Z,548
2017-02-27T07:08:38.246Z,576
2017-02-27T07:09:38.387Z,508
2017-02-27T07:10:38.236Z,480
2017-02-27T07:11:37.813Z,484
2017-02-27T07:12:38.198Z,540
2017-02-27T07:13:37.794Z,624
2017-02-27T07:14:37.768Z,644
2017-02-27T07:15:37.731Z,680
2017-02-27T07:16:37.730Z,680
2017-02-27T07:17:37.312Z,688
2017-02-27T07:18:37.280Z,748
2017-02-27T07:19:37.644Z,892
2017-02-27T07:20:37.637Z,1092
2017-02-27T07:21:37.232Z,1140
2017-02-27T07:22:37.593Z,944
2017-02-27T07:23:37.568Z,644
2017-02-27T07:24:37.952Z,560
2017-02-27T07:25:37.546Z,640
2017-02-27T07:26:37.515Z,788
2017-02-27T07:27:37.496Z,980
2017-02-27T07:28:37.134Z,1032
2017-02-27T07:29:37.082Z,984
2017-02-27T07:30:37.834Z,964
2017-02-27T07:31:37.804Z,1264
2017-02-27T07:32:37.403Z,1172
2017-02-27T07:33:37.381Z,1048
2017-02-27T07:34:37.373Z,848
2017-02-27T07:35:37.725Z,972
2017-02-27T07:36:37.321Z,948
2017-02-27T07:37:36.946Z,1032
2017-02-27T07:38:37.674Z,992
2017-02-27T07:39:37.659Z,1092
2017-02-27T07:40:37.640Z,1092
2017-02-27T07:41:37.615Z,1048
2017-02-27T07:42:37.214Z,1164
2017-02-27T07:43:37.191Z,1524
2017-02-27T07:44:36.799Z,1524
2017-02-27T07:45:37.553Z,1240
2017-02-27T07:46:37.504Z,1800
2017-02-27T07:47:37.106Z,4252
2017-02-27T07:48:36.767Z,3640
2017-02-27T07:49:37.126Z,2328
2017-02-27T07:50:37.442Z,1964
2017-02-27T07:51:36.743Z,1624
2017-02-27T07:52:37.383Z,1480
2017-02-27T07:53:36.989Z,1664
2017-02-27T07:54:36.962Z,2072
2017-02-27T07:55:36.948Z,1392
2017-02-27T07:56:37.311Z,2752
2017-02-27T07:57:37.290Z,2164
2017-02-27T07:58:37.289Z,2884
2017-02-27T07:59:37.252Z,3412
2017-02-27T08:00:36.894Z,17824
2017-02-27T08:01:36.489Z,3740
2017-02-27T08:02:36.829Z,3320
2017-02-27T08:03:36.380Z,3476
2017-02-27T08:04:36.777Z,3148
2017-02-27T08:05:36.727Z,3200
2017-02-27T08:06:36.823Z,3260
2017-02-27T08:07:37.102Z,3320
2017-02-27T08:08:37.074Z,4364
2017-02-27T08:09:36.665Z,40352
2017-02-27T08:10:36.734Z,2672
2017-02-27T08:11:36.996Z,2048
2017-02-27T08:12:36.614Z,2460
2017-02-27T08:13:36.241Z,3072
2017-02-27T08:14:36.971Z,4748
2017-02-27T08:15:36.932Z,6272
2017-02-27T08:16:36.531Z,5776
2017-02-27T08:17:36.909Z,4548
2017-02-27T08:18:36.100Z,3764
2017-02-27T08:19:36.861Z,3516
2017-02-27T08:20:36.818Z,3568
2017-02-27T08:21:36.839Z,3448
2017-02-27T08:22:36.428Z,3252
2017-02-27T08:23:36.767Z,3040
2017-02-27T08:24:35.978Z,4468
2017-02-27T08:25:36.733Z,4440
2017-02-27T08:26:36.725Z,3808
2017-02-27T08:27:36.327Z,3124
2017-02-27T08:28:36.694Z,3968
2017-02-27T08:29:36.659Z,5536
2017-02-27T08:30:36.263Z,5272
2017-02-27T08:31:36.254Z,3832
2017-02-27T08:32:36.225Z,2968
2017-02-27T08:33:36.590Z,3712
2017-02-27T08:34:36.586Z,5164
2017-02-27T08:35:36.559Z,4428
2017-02-27T08:36:35.757Z,3908
2017-02-27T08:37:36.140Z,4424
2017-02-27T08:38:36.501Z,4680
2017-02-27T08:39:36.490Z,4584
2017-02-27T08:40:36.460Z,5364
2017-02-27T08:41:36.438Z,5388
2017-02-27T08:42:35.687Z,5624
2017-02-27T08:43:36.017Z,5196
2017-02-27T08:44:36.365Z,4908
2017-02-27T08:45:35.962Z,4556
2017-02-27T08:46:36.048Z,4152
2017-02-27T08:47:35.963Z,4064
2017-02-27T08:48:35.924Z,3560
2017-02-27T08:49:36.342Z,4380
2017-02-27T08:50:35.873Z,3264
2017-02-27T08:51:35.853Z,3520
2017-02-27T08:52:35.833Z,3136
2017-02-27T08:53:35.426Z,3012
2017-02-27T08:54:36.178Z,7644
2017-02-27T08:55:35.791Z,4024
2017-02-27T08:56:36.171Z,3984
2017-02-27T08:57:35.349Z,3684
2017-02-27T08:58:35.750Z,4728
2017-02-27T08:59:35.738Z,7012
2017-02-27T09:00:35.309Z,6136
2017-02-27T09:01:35.697Z,4236
2017-02-27T09:02:35.664Z,3872
2017-02-27T09:03:36.090Z,3356
2017-02-27T09:04:35.261Z,3720
2017-02-27T09:05:35.616Z,6636
2017-02-27T09:06:35.573Z,7048
2017-02-27T09:07:35.954Z,6340
2017-02-27T09:08:35.522Z,32032
2017-02-27T09:09:35.909Z,5348
2017-02-27T09:10:35.133Z,5440
2017-02-27T09:11:35.878Z,4032
2017-02-27T09:12:35.052Z,4356
2017-02-27T09:13:35.864Z,4992
2017-02-27T09:14:35.027Z,4924
2017-02-27T09:15:35.393Z,4468
2017-02-27T09:16:35.382Z,4772
2017-02-27T09:17:35.520Z,4668
2017-02-27T09:18:34.958Z,5016
2017-02-27T09:19:35.713Z,4764
2017-02-27T09:20:34.927Z,5420
2017-02-27T09:21:35.305Z,6520
2017-02-27T09:22:35.296Z,7792
2017-02-27T09:23:35.643Z,9000
2017-02-27T09:24:35.625Z,12912
2017-02-27T09:25:35.605Z,18240
2017-02-27T09:26:34.816Z,11736
2017-02-27T09:27:35.174Z,6108
2017-02-27T09:28:35.179Z,4812
2017-02-27T09:29:35.535Z,4792
2017-02-27T09:30:34.723Z,5136
2017-02-27T09:31:35.493Z,4740
2017-02-27T09:32:35.095Z,6808
2017-02-27T09:33:35.109Z,4184
2017-02-27T09:34:34.660Z,3668
2017-02-27T09:35:34.654Z,4036
2017-02-27T09:36:35.429Z,4364
2017-02-27T09:37:35.398Z,4852
2017-02-27T09:38:35.392Z,4848
2017-02-27T09:39:34.651Z,4176
2017-02-27T09:40:35.346Z,3352
2017-02-27T09:41:34.641Z,3112
2017-02-27T09:42:34.535Z,3076
2017-02-27T09:43:34.981Z,3252
2017-02-27T09:44:34.874Z,4308
2017-02-27T09:45:34.093Z,12012
2017-02-27T09:46:34.845Z,4776
2017-02-27T09:47:34.443Z,4432
2017-02-27T09:48:34.413Z,5052
2017-02-27T09:49:34.448Z,4184
2017-02-27T09:50:34.401Z,3976
2017-02-27T09:51:35.144Z,4360
2017-02-27T09:52:34.429Z,5600
2017-02-27T09:53:34.813Z,4148
2017-02-27T09:54:35.168Z,3676
2017-02-27T09:55:34.286Z,4120
2017-02-27T09:56:34.795Z,5740
2017-02-27T09:57:35.139Z,4104
2017-02-27T09:58:34.267Z,4648
2017-02-27T09:59:34.691Z,4512
2017-02-27T10:00:34.603Z,3672
2017-02-27T10:01:34.707Z,3180
2017-02-27T10:02:34.136Z,3092
2017-02-27T10:03:34.515Z,3448
2017-02-27T10:04:34.498Z,3508
2017-02-27T10:05:34.518Z,3316
2017-02-27T10:06:34.912Z,3140
2017-02-27T10:07:34.640Z,3416
2017-02-27T10:08:34.222Z,3980
2017-02-27T10:09:34.415Z,3980
2017-02-27T10:10:34.013Z,3724
2017-02-27T10:11:34.853Z,4308
2017-02-27T10:12:34.728Z,4552
2017-02-27T10:13:34.415Z,4268
2017-02-27T10:14:33.923Z,3976
2017-02-27T10:15:34.348Z,4560
2017-02-27T10:16:34.275Z,4844
2017-02-27T10:17:34.307Z,5088
2017-02-27T10:18:34.286Z,4980
2017-02-27T10:19:34.238Z,5264
2017-02-27T10:20:34.589Z,4704
2017-02-27T10:21:33.403Z,4344
2017-02-27T10:22:34.160Z,6652
2017-02-27T10:23:34.174Z,5752
2017-02-27T10:24:34.145Z,4776
2017-02-27T10:25:34.123Z,5904
2017-02-27T10:26:34.112Z,5180
2017-02-27T10:27:34.082Z,4216
2017-02-27T10:28:34.051Z,4304
2017-02-27T10:29:34.058Z,4768
2017-02-27T10:30:33.630Z,5052
2017-02-27T10:31:34.394Z,4440
2017-02-27T10:32:33.620Z,4488
2017-02-27T10:33:34.399Z,5136
2017-02-27T10:34:33.968Z,6068
2017-02-27T10:35:33.933Z,5384
2017-02-27T10:36:33.523Z,4616
2017-02-27T10:37:34.268Z,4380
2017-02-27T10:38:34.236Z,4304
2017-02-27T10:39:34.372Z,4412
2017-02-27T10:40:34.226Z,4636
2017-02-27T10:41:34.195Z,5532
2017-02-27T10:42:33.793Z,7020
2017-02-27T10:43:33.815Z,6728
2017-02-27T10:44:34.143Z,6920
2017-02-27T10:45:33.732Z,7940
2017-02-27T10:46:34.141Z,8128
2017-02-27T10:47:34.105Z,7900
2017-02-27T10:48:33.711Z,6180
2017-02-27T10:49:33.672Z,5500
2017-02-27T10:50:33.638Z,6852
2017-02-27T10:51:33.242Z,8996
2017-02-27T10:52:33.630Z,8024
2017-02-27T10:53:33.609Z,8052
2017-02-27T10:54:32.911Z,9960
2017-02-27T10:55:33.550Z,8232
2017-02-27T10:56:33.549Z,7140
2017-02-27T10:57:33.619Z,5780
2017-02-27T10:58:33.935Z,5492
2017-02-27T10:59:33.905Z,5764
2017-02-27T11:00:33.874Z,5676
2017-02-27T11:01:33.514Z,4764
2017-02-27T11:02:33.046Z,4576
2017-02-27T11:03:33.804Z,4944
2017-02-27T11:04:33.792Z,4964
2017-02-27T11:05:33.766Z,4656
2017-02-27T11:06:33.722Z,4248
2017-02-27T11:07:33.425Z,4464
2017-02-27T11:08:33.720Z,4356
2017-02-27T11:09:33.310Z,3996
2017-02-27T11:10:32.911Z,3612
2017-02-27T11:11:33.278Z,3164
2017-02-27T11:12:32.873Z,3152
2017-02-27T11:13:33.629Z,3184
2017-02-27T11:14:33.607Z,3680
2017-02-27T11:15:32.822Z,3768
2017-02-27T11:16:32.818Z,3144
2017-02-27T11:17:32.809Z,3176
2017-02-27T11:18:33.139Z,3448
2017-02-27T11:19:32.780Z,3000
2017-02-27T11:20:33.524Z,2708
2017-02-27T11:21:32.706Z,2636
2017-02-27T11:22:32.685Z,2588
2017-02-27T11:23:32.675Z,3416
2017-02-27T11:24:32.655Z,2628
2017-02-27T11:25:33.401Z,2492
2017-02-27T11:26:32.604Z,2240
2017-02-27T11:27:33.054Z,2340
2017-02-27T11:28:32.580Z,2360
2017-02-27T11:29:33.350Z,2472
2017-02-27T11:30:32.948Z,3260
2017-02-27T11:31:32.991Z,3664
2017-02-27T11:32:32.495Z,3364
2017-02-27T11:33:32.957Z,2972
2017-02-27T11:34:32.854Z,2724
2017-02-27T11:35:32.444Z,2860
2017-02-27T11:36:33.224Z,3740
2017-02-27T11:37:32.899Z,4116
2017-02-27T11:38:33.155Z,3608
2017-02-27T11:39:32.355Z,3340
2017-02-27T11:40:33.258Z,3388
2017-02-27T11:41:32.741Z,3700
2017-02-27T11:42:32.800Z,3852
2017-02-27T11:43:32.697Z,3496
2017-02-27T11:44:33.057Z,2840
2017-02-27T11:45:32.649Z,2696
2017-02-27T11:46:32.627Z,2392
2017-02-27T11:47:32.619Z,2520
2017-02-27T11:48:32.627Z,2888
2017-02-27T11:49:32.595Z,3256
2017-02-27T11:50:32.179Z,3228
2017-02-27T11:51:32.942Z,3152
2017-02-27T11:52:32.948Z,3148
2017-02-27T11:53:32.135Z,2756
2017-02-27T11:54:32.502Z,2868
2017-02-27T11:55:32.478Z,2988
2017-02-27T11:56:32.463Z,2916
2017-02-27T11:57:32.040Z,2756
2017-02-27T11:58:32.814Z,2724
2017-02-27T11:59:32.856Z,3060
2017-02-27T12:00:31.993Z,3080
2017-02-27T12:01:32.770Z,3032
2017-02-27T12:02:31.933Z,3040
2017-02-27T12:03:32.726Z,3096
2017-02-27T12:04:32.312Z,3072
2017-02-27T12:05:32.295Z,2980
2017-02-27T12:06:31.870Z,2888
2017-02-27T12:07:31.848Z,3240
2017-02-27T12:08:32.224Z,4276
2017-02-27T12:09:32.210Z,3864
2017-02-27T12:10:32.590Z,3040
2017-02-27T12:11:31.808Z,2632
2017-02-27T12:12:32.541Z,2216
2017-02-27T12:13:32.599Z,2224
2017-02-27T12:14:32.122Z,2656
2017-02-27T12:15:31.736Z,2860
2017-02-27T12:16:31.789Z,3128
2017-02-27T12:17:32.063Z,3356
2017-02-27T12:18:31.698Z,3056
2017-02-27T12:19:32.023Z,2660
2017-02-27T12:20:32.015Z,2796
2017-02-27T12:21:31.212Z,2696
2017-02-27T12:22:31.951Z,2400
2017-02-27T12:23:32.361Z,2596
2017-02-27T12:24:31.922Z,2480
2017-02-27T12:25:31.909Z,2504
2017-02-27T12:26:31.131Z,2688
2017-02-27T12:27:31.894Z,2712
2017-02-27T12:28:32.248Z,2852
2017-02-27T12:29:32.248Z,2540
2017-02-27T12:30:32.222Z,2244
2017-02-27T12:31:31.822Z,2312
2017-02-27T12:32:31.776Z,2724
2017-02-27T12:33:32.136Z,3088
2017-02-27T12:34:32.128Z,2900
2017-02-27T12:35:32.111Z,2632
2017-02-27T12:36:32.084Z,2848
2017-02-27T12:37:31.748Z,2844
2017-02-27T12:38:31.303Z,2744
2017-02-27T12:39:31.663Z,2708
2017-02-27T12:40:32.033Z,2700
2017-02-27T12:41:31.302Z,2612
2017-02-27T12:42:31.597Z,2708
2017-02-27T12:43:31.583Z,2800
2017-02-27T12:44:31.972Z,2812
2017-02-27T12:45:31.940Z,3040
2017-02-27T12:46:31.537Z,3136
2017-02-27T12:47:31.538Z,3148
2017-02-27T12:48:31.506Z,3704
2017-02-27T12:49:31.855Z,3884
2017-02-27T12:50:31.859Z,3708
2017-02-27T12:51:31.445Z,3672
2017-02-27T12:52:31.444Z,3688
2017-02-27T12:53:31.796Z,3300
2017-02-27T12:54:31.765Z,3088
2017-02-27T12:55:30.986Z,3000
2017-02-27T12:56:30.963Z,2816
2017-02-27T12:57:31.704Z,2952
2017-02-27T12:58:31.375Z,3100
2017-02-27T12:59:31.292Z,3240
2017-02-27T13:00:31.311Z,3544
2017-02-27T13:01:30.882Z,3544
2017-02-27T13:02:31.229Z,3228
2017-02-27T13:03:31.225Z,3124
2017-02-27T13:04:31.204Z,3012
2017-02-27T13:05:31.188Z,2772
2017-02-27T13:06:30.775Z,2332
2017-02-27T13:07:31.155Z,2212
2017-02-27T13:08:31.198Z,1952
2017-02-27T13:09:31.533Z,2088
2017-02-27T13:10:31.099Z,2108
2017-02-27T13:11:30.712Z,2184
2017-02-27T13:12:30.286Z,2188
2017-02-27T13:13:31.445Z,2400
2017-02-27T13:14:31.416Z,2580
2017-02-27T13:15:30.635Z,2372
2017-02-27T13:16:30.979Z,2304
2017-02-27T13:17:30.640Z,2520
2017-02-27T13:18:30.941Z,2616
2017-02-27T13:19:31.294Z,2512
2017-02-27T13:20:30.903Z,2264
2017-02-27T13:21:30.492Z,2520
2017-02-27T13:22:31.269Z,2392
2017-02-27T13:23:30.883Z,2484
2017-02-27T13:24:30.844Z,2320
2017-02-27T13:25:31.259Z,2020
2017-02-27T13:26:31.257Z,1996
2017-02-27T13:27:29.982Z,1972
2017-02-27T13:28:30.846Z,1992
2017-02-27T13:29:30.338Z,1960
2017-02-27T13:30:30.775Z,1824
2017-02-27T13:31:31.083Z,1644
2017-02-27T13:32:31.099Z,1596
2017-02-27T13:33:30.674Z,1644
2017-02-27T13:34:31.099Z,1752
2017-02-27T13:35:31.084Z,1712
2017-02-27T13:36:30.609Z,1656
2017-02-27T13:37:30.192Z,1596
2017-02-27T13:38:30.966Z,1540
2017-02-27T13:39:30.151Z,1452
2017-02-27T13:40:30.991Z,1448
2017-02-27T13:41:30.518Z,1604
2017-02-27T13:42:30.559Z,2096
2017-02-27T13:43:30.498Z,2660
2017-02-27T13:44:30.459Z,2064
2017-02-27T13:45:30.884Z,1652
2017-02-27T13:46:30.404Z,1732
2017-02-27T13:47:30.949Z,1464
2017-02-27T13:48:30.392Z,1172
2017-02-27T13:49:29.975Z,1156
2017-02-27T13:50:29.563Z,1328
2017-02-27T13:51:30.749Z,1588
2017-02-27T13:52:29.913Z,1888
2017-02-27T13:53:30.698Z,2200
2017-02-27T13:54:30.669Z,1888
2017-02-27T13:55:30.295Z,1656
2017-02-27T13:56:30.242Z,1508
2017-02-27T13:57:30.660Z,1276
2017-02-27T13:58:30.571Z,1080
2017-02-27T13:59:30.280Z,972
2017-02-27T14:00:30.179Z,976
2017-02-27T14:01:29.767Z,1056
2017-02-27T14:02:30.119Z,1112
2017-02-27T14:03:29.707Z,1252
2017-02-27T14:04:29.766Z,1344
2017-02-27T14:05:30.083Z,1252
2017-02-27T14:06:30.037Z,1212
2017-02-27T14:07:30.423Z,1184
2017-02-27T14:08:30.064Z,1056
2017-02-27T14:09:29.992Z,1036
2017-02-27T14:10:29.673Z,1144
2017-02-27T14:11:29.573Z,1208
2017-02-27T14:12:29.929Z,1308
2017-02-27T14:13:29.915Z,1428